メインページ
METAR-TAF:

METAR-TAF

空港 :

Tofino, ブリティッシュコロンビア州, カナダ

緯度: 49-05N, 経度: 125-46W, 海抜: 24m

現時点の気象観測

当レポートは20分前の01:00(UTC)に作成
西/北西の風 8kt、西から北西の間で変化する
気温 17°C
湿度 63%
気圧 1013 hPa
視程: 24.1km
高度15000ftの雲はほとんどない
高度24000ftの雲はほとんどない

METAR: CYAZ 240100Z 30008KT 260V320 15SM FEW150 FEW240 17/10 A2990 RMK AC1CI2 AC TR FG BANK OFSHR LAST STFD OBS/NEXT 241300UTC SLP126 DENSITY ALT 300FT

時間: 18:20 (01:20 UTC)

予報

当レポートは4時間10分前の21:10(UTC)に作成
予報は23日の 21時(UTC)から 24日の 01時(UTC)まで有効
南/南西の風 8kt
視程: 10km
高度800ftの雲は散在している
23日の 21時(UTC)から 24日の 01時(UTC)まで一時的に
高度800ftの千切れ雲あり

TAF: CYAZ 232110Z 2321/2401 20008KT P6SM SCT008 TEMPO 2321/2401 BKN008 RMK NXT FCST WILL BE ISSUED AT 241445Z

4,000以上の空港の気象観測と天気予報(METAR報とTAF報)

利用可能な観測所は地図上に黄色い丸と赤い丸で示す。

丸の上にカーソルを重ねると観測所名を参照できる。

次にクリックすると気象観測と天気予報を参照できる。

マップの切り替え:黒色「×」印の緑ボタンをクリックして拡大、「-」印の緑ボタンをクリックして縮小、緑色の三角印をクリックして隣りの地図に切り替え


METAR-TAF: